Time;durP1;ratioP1;P1;durP2;ratioP2;P2;SDS_P1;SDS_P2;PMS_P1;PMS_P2;Temp;Humidity;BMP_temperature;BMP_pressure;BME280_temperature;BME280_humidity;BME280_pressure;Samples;Min_cycle;Max_cycle;Signal;HPM_P1;HPM_P2
2023/12/01 07:07:51;;;;;;;7.53;5.03;;;;;;;;;;10668778;22;20047;-83
2023/12/01 07:13:18;;;;;;;9.07;5.90;;;;;;;;;;10603841;28;20043;-83
2023/12/01 07:41:00;;;;;;;;;;;;;;;;;;10579894;28;20035;-84
2023/12/01 08:03:22;;;;;;;10.95;6.32;;;;;;;;;;10506401;28;20020;-84
2023/12/01 08:08:37;;;;;;;14.93;9.68;;;;;;;;;;10503953;28;20115;-83
2023/12/01 08:13:42;;;;;;;17.90;11.88;;;;;;;;;;10531632;28;20560;-84
2023/12/01 08:18:43;;;;;;;18.52;12.55;;;;;;;;;;10543263;28;20032;-82
2023/12/01 08:23:44;;;;;;;17.13;12.27;;;;;;;;;;10535041;28;20028;-80
2023/12/01 08:28:45;;;;;;;16.60;10.85;;;;;;;;;;10535809;28;20036;-80
2023/12/01 08:33:46;;;;;;;12.75;9.15;;;;;;;;;;10540550;28;20104;-80
2023/12/01 08:38:48;;;;;;;16.85;12.38;;;;;;;;;;10557395;28;20062;-79
2023/12/01 08:43:49;;;;;;;15.35;10.10;;;;;;;;;;10548180;28;20020;-79
2023/12/01 08:48:50;;;;;;;12.65;8.27;;;;;;;;;;10544496;28;20036;-79
2023/12/01 08:53:51;;;;;;;15.63;10.48;;;;;;;;;;10551294;28;20054;-81
2023/12/01 08:58:52;;;;;;;11.15;8.20;;;;;;;;;;10551262;28;20066;-79
2023/12/01 09:03:53;;;;;;;14.60;9.90;;;;;;;;;;10551849;28;20150;-79
2023/12/01 09:08:54;;;;;;;;;;;;;;;;;;10531270;28;20123;-78
2023/12/01 09:13:55;;;;;;;9.63;7.00;;;;;;;;;;10551844;28;19914;-79
2023/12/01 09:18:56;;;;;;;16.95;11.40;;;;;;;;;;10534231;28;20091;-79
2023/12/01 09:23:57;;;;;;;11.70;7.88;;;;;;;;;;10550676;28;20123;-80
2023/12/01 09:28:58;;;;;;;12.45;8.30;;;;;;;;;;10534759;28;20032;-79
2023/12/01 09:33:59;;;;;;;9.43;6.43;;;;;;;;;;10549936;28;20028;-80
2023/12/01 09:39:00;;;;;;;8.30;6.15;;;;;;;;;;10530441;28;20028;-79
2023/12/01 09:44:02;;;;;;;7.63;5.70;;;;;;;;;;10550805;28;20038;-80
2023/12/01 09:49:07;;;;;;;14.20;9.48;;;;;;;;;;10536379;28;20024;-80
2023/12/01 09:54:08;;;;;;;16.85;11.02;;;;;;;;;;10534442;28;20054;-81
2023/12/01 09:59:10;;;;;;;11.35;7.70;;;;;;;;;;10533792;28;20576;-80
2023/12/01 10:04:11;;;;;;;11.10;7.20;;;;;;;;;;10540485;28;20039;-79
2023/12/01 10:09:12;;;;;;;;;;;;;;;;;;10562584;28;20036;-79
2023/12/01 10:14:13;;;;;;;9.63;6.50;;;;;;;;;;10530399;28;19908;-79
2023/12/01 10:19:16;;;;;;;9.70;6.47;;;;;;;;;;10549142;28;20032;-79
2023/12/01 10:24:22;;;;;;;10.43;7.25;;;;;;;;;;10533262;28;20020;-79
2023/12/01 10:29:24;;;;;;;8.98;5.68;;;;;;;;;;10532014;28;20077;-80
2023/12/01 10:34:26;;;;;;;7.50;5.35;;;;;;;;;;10533201;28;20462;-80
2023/12/01 10:39:27;;;;;;;9.07;6.30;;;;;;;;;;10533798;28;20028;-80
2023/12/01 10:44:28;;;;;;;12.85;9.13;;;;;;;;;;10532834;28;20028;-82
2023/12/01 10:49:30;;;;;;;12.10;9.35;;;;;;;;;;10534308;28;20061;-79
2023/12/01 10:54:32;;;;;;;11.90;7.80;;;;;;;;;;10534443;28;20032;-81
2023/12/01 10:59:34;;;;;;;9.73;6.35;;;;;;;;;;10536782;28;20465;-81
2023/12/01 11:04:36;;;;;;;16.75;11.35;;;;;;;;;;10558283;28;20024;-81
2023/12/01 11:09:49;;;;;;;15.45;10.60;;;;;;;;;;10557426;28;20040;-82
2023/12/01 11:14:51;;;;;;;8.77;6.30;;;;;;;;;;10541048;28;20063;-80
2023/12/01 11:19:52;;;;;;;7.95;5.15;;;;;;;;;;10549465;28;20055;-80
2023/12/01 11:24:57;;;;;;;14.45;9.75;;;;;;;;;;10544322;28;20051;-81
2023/12/01 11:30:07;;;;;;;12.82;9.05;;;;;;;;;;10534376;28;20060;-81
2023/12/01 11:35:09;;;;;;;8.45;5.13;;;;;;;;;;10545162;28;20028;-81
2023/12/01 11:40:26;;;;;;;10.55;6.63;;;;;;;;;;10541341;28;20103;-81
2023/12/01 11:45:44;;;;;;;9.23;6.50;;;;;;;;;;10540016;28;20026;-81
2023/12/01 11:50:45;;;;;;;7.85;5.93;;;;;;;;;;10557878;28;20380;-81
2023/12/01 11:55:46;;;;;;;;;;;;;;;;;;10538823;28;20401;-81
2023/12/01 12:00:47;;;;;;;8.98;5.55;;;;;;;;;;10532974;28;19952;-82
2023/12/01 12:05:48;;;;;;;13.65;8.55;;;;;;;;;;10533789;28;20515;-81
2023/12/01 12:10:49;;;;;;;8.38;4.93;;;;;;;;;;10535060;28;20028;-81
2023/12/01 12:15:50;;;;;;;9.90;6.72;;;;;;;;;;10536120;28;20092;-81
2023/12/01 12:20:51;;;;;;;;;;;;;;;;;;10541294;28;20024;-81
2023/12/01 12:25:52;;;;;;;7.22;4.45;;;;;;;;;;10544274;28;20451;-82
2023/12/01 12:30:56;;;;;;;9.88;7.03;;;;;;;;;;10545892;28;20028;-81
2023/12/01 12:35:58;;;;;;;6.55;4.78;;;;;;;;;;10542965;28;20060;-82
2023/12/01 12:40:59;;;;;;;5.82;4.00;;;;;;;;;;10555776;28;20088;-81
2023/12/01 12:46:03;;;;;;;7.72;4.75;;;;;;;;;;10554993;28;20047;-82
2023/12/01 12:51:05;;;;;;;6.53;4.60;;;;;;;;;;10536174;28;20448;-82
2023/12/01 12:56:13;;;;;;;8.88;5.88;;;;;;;;;;10536002;28;20028;-82
2023/12/01 13:01:14;;;;;;;6.50;4.45;;;;;;;;;;10537292;28;20081;-83
2023/12/01 13:06:16;;;;;;;8.55;5.40;;;;;;;;;;10535845;28;20134;-79
2023/12/01 13:11:18;;;;;;;10.75;5.78;;;;;;;;;;10532083;28;20477;-79
2023/12/01 13:16:19;;;;;;;6.53;4.43;;;;;;;;;;10549954;28;20445;-79
2023/12/01 13:21:20;;;;;;;7.38;5.40;;;;;;;;;;10549791;28;20034;-82
2023/12/01 13:26:23;;;;;;;5.25;3.90;;;;;;;;;;10532031;28;20031;-79
2023/12/01 13:31:24;;;;;;;11.68;7.18;;;;;;;;;;10527809;28;20119;-80
2023/12/01 13:36:25;;;;;;;8.43;5.63;;;;;;;;;;10528424;28;20055;-80
2023/12/01 13:41:26;;;;;;;10.90;7.85;;;;;;;;;;10527648;28;20173;-78
2023/12/01 13:46:27;;;;;;;9.85;5.57;;;;;;;;;;10537925;28;20020;-77
2023/12/01 13:51:28;;;;;;;8.65;5.10;;;;;;;;;;10532405;28;20039;-78
2023/12/01 13:56:29;;;;;;;6.32;4.57;;;;;;;;;;10532531;28;20016;-77
2023/12/01 14:01:31;;;;;;;6.13;5.13;;;;;;;;;;10528026;28;20024;-78
2023/12/01 14:06:32;;;;;;;;;;;;;;;;;;10529624;28;20040;-78
2023/12/01 14:11:33;;;;;;;;;;;;;;;;;;10528813;28;19915;-79
2023/12/01 14:16:35;;;;;;;7.18;4.95;;;;;;;;;;10528516;28;19986;-78
2023/12/01 14:21:36;;;;;;;8.55;5.68;;;;;;;;;;10527839;28;20454;-79
2023/12/01 14:26:38;;;;;;;11.80;8.18;;;;;;;;;;10546272;28;20092;-78
2023/12/01 14:31:39;;;;;;;11.43;5.53;;;;;;;;;;10530115;28;20389;-78
2023/12/01 14:36:41;;;;;;;8.38;4.93;;;;;;;;;;10527789;28;20028;-78
2023/12/01 14:41:42;;;;;;;8.27;5.22;;;;;;;;;;10527584;28;20101;-78
2023/12/01 14:46:43;;;;;;;9.20;4.53;;;;;;;;;;10528347;28;20070;-78
2023/12/01 14:51:44;;;;;;;8.20;5.60;;;;;;;;;;10529831;28;20434;-78
2023/12/01 14:56:45;;;;;;;7.55;5.72;;;;;;;;;;10554949;28;20054;-78
2023/12/01 15:01:50;;;;;;;8.50;5.30;;;;;;;;;;10537704;28;20032;-78
2023/12/01 15:06:51;;;;;;;9.80;5.60;;;;;;;;;;10535912;28;20412;-79
2023/12/01 15:11:53;;;;;;;7.72;5.38;;;;;;;;;;10538053;28;20029;-78
2023/12/01 15:16:56;;;;;;;;;;;;;;;;;;10551058;28;20055;-78
2023/12/01 15:21:59;;;;;;;8.98;5.80;;;;;;;;;;10544650;28;19935;-81
2023/12/01 15:27:00;;;;;;;11.85;7.38;;;;;;;;;;10539477;28;20024;-79
2023/12/01 15:32:01;;;;;;;5.57;3.78;;;;;;;;;;10537946;28;20028;-79
2023/12/01 15:37:02;;;;;;;9.27;4.95;;;;;;;;;;10535503;28;20047;-79
2023/12/01 15:42:03;;;;;;;8.10;5.05;;;;;;;;;;10537497;28;20095;-80
2023/12/01 15:47:04;;;;;;;;;;;;;;;;;;10536860;28;20031;-79
2023/12/01 15:52:06;;;;;;;11.85;7.95;;;;;;;;;;10535377;28;19908;-79
2023/12/01 15:57:07;;;;;;;7.07;5.53;;;;;;;;;;10534240;28;20115;-78
2023/12/01 16:02:09;;;;;;;8.98;5.60;;;;;;;;;;10535291;28;20052;-78
2023/12/01 16:07:10;;;;;;;8.07;5.07;;;;;;;;;;10535239;28;20040;-79
2023/12/01 16:12:11;;;;;;;5.85;4.32;;;;;;;;;;10533941;28;20119;-78
2023/12/01 16:17:13;;;;;;;7.93;6.18;;;;;;;;;;10534544;28;20088;-79
2023/12/01 16:22:26;;;;;;;7.28;5.30;;;;;;;;;;10533025;28;20024;-79
2023/12/01 16:27:27;;;;;;;9.27;5.75;;;;;;;;;;10552299;28;20028;-79
2023/12/01 16:32:28;;;;;;;8.73;6.82;;;;;;;;;;10533614;28;20028;-79
2023/12/01 16:37:29;;;;;;;9.82;6.07;;;;;;;;;;10535396;28;20042;-78
2023/12/01 16:42:32;;;;;;;5.78;4.03;;;;;;;;;;10557316;28;20028;-77
2023/12/01 16:47:34;;;;;;;9.73;7.00;;;;;;;;;;10538406;28;20085;-77
2023/12/01 16:52:35;;;;;;;7.43;5.25;;;;;;;;;;10539372;28;20031;-77
2023/12/01 16:57:36;;;;;;;6.28;4.15;;;;;;;;;;10556527;28;20497;-78
2023/12/01 17:02:37;;;;;;;;;;;;;;;;;;10537026;28;20050;-78
2023/12/01 17:07:39;;;;;;;7.85;5.47;;;;;;;;;;10535817;28;19937;-78
2023/12/01 17:12:40;;;;;;;7.35;5.43;;;;;;;;;;10531632;28;20055;-78
2023/12/01 17:17:41;;;;;;;7.43;4.97;;;;;;;;;;10534551;28;20492;-77
2023/12/01 17:22:43;;;;;;;;;;;;;;;;;;10536536;28;20100;-78
2023/12/01 17:33:49;;;;;;;9.80;8.00;;;;;;;;;;10553346;28;20401;-81
2023/12/01 17:45:17;;;;;;;10.05;7.28;;;;;;;;;;10551379;28;20020;-82
2023/12/01 17:50:44;;;;;;;10.57;8.52;;;;;;;;;;10551307;28;20058;-83
2023/12/01 17:55:46;;;;;;;10.18;7.97;;;;;;;;;;10534770;28;20077;-82
2023/12/01 18:00:47;;;;;;;11.30;9.23;;;;;;;;;;10535320;28;20118;-82
2023/12/01 18:06:05;;;;;;;6.03;4.78;;;;;;;;;;10537834;28;20172;-83
2023/12/01 18:11:08;;;;;;;8.00;5.93;;;;;;;;;;10537919;28;20035;-83
2023/12/01 18:16:09;;;;;;;6.28;5.45;;;;;;;;;;10537671;28;20046;-83
2023/12/01 18:21:13;;;;;;;9.93;6.85;;;;;;;;;;10555900;28;20026;-83
2023/12/01 18:26:19;;;;;;;5.72;4.43;;;;;;;;;;10539049;28;20092;-83
2023/12/01 18:31:39;;;;;;;8.40;6.68;;;;;;;;;;10540384;28;20051;-83
2023/12/01 18:42:49;;;;;;;6.93;6.05;;;;;;;;;;10420817;28;20566;-82
2023/12/01 18:53:51;;;;;;;7.25;5.90;;;;;;;;;;10421750;28;20029;-83
2023/12/01 19:10:26;;;;;;;6.18;4.90;;;;;;;;;;10470866;28;19948;-86
2023/12/01 19:26:36;;;;;;;8.48;6.13;;;;;;;;;;10552243;28;19908;-86
2023/12/01 19:43:26;;;;;;;9.10;7.28;;;;;;;;;;10552439;28;20024;-85
2023/12/01 19:48:47;;;;;;;6.68;5.22;;;;;;;;;;10508677;28;20032;-85
2023/12/01 19:53:48;;;;;;;9.35;8.20;;;;;;;;;;10499630;28;20028;-86
2023/12/01 19:58:49;;;;;;;11.20;7.72;;;;;;;;;;10553044;28;20074;-85
2023/12/01 20:03:50;;;;;;;7.10;5.88;;;;;;;;;;10558443;28;20097;-86
2023/12/01 20:08:51;;;;;;;6.07;4.80;;;;;;;;;;10539332;28;20103;-86
